createdAt,value
2023-05-01T00:02:48.266Z,12.50
2023-05-01T00:06:30.780Z,12.50
2023-05-01T00:10:13.068Z,12.40
2023-05-01T00:13:55.200Z,12.30
2023-05-01T00:17:37.332Z,12.30
2023-05-01T00:21:19.555Z,12.20
2023-05-01T00:25:01.834Z,12.10
2023-05-01T00:28:43.982Z,12.10
2023-05-01T00:32:26.147Z,12.00
2023-05-01T00:36:09.324Z,12.00
2023-05-01T00:39:51.489Z,11.90
2023-05-01T00:43:33.840Z,11.90
2023-05-01T00:47:15.989Z,11.90
2023-05-01T00:51:01.930Z,11.90
2023-05-01T00:54:52.039Z,11.80
2023-05-01T00:58:35.832Z,11.80
2023-05-01T01:02:18.216Z,11.70
2023-05-01T01:06:15.674Z,11.70
2023-05-01T01:10:34.817Z,11.60
2023-05-01T01:14:21.686Z,11.60
2023-05-01T01:18:19.621Z,11.60
2023-05-01T01:22:08.239Z,11.60
2023-05-01T01:26:11.353Z,11.70
2023-05-01T01:30:08.378Z,11.80
2023-05-01T01:34:24.390Z,11.80
2023-05-01T01:38:17.496Z,11.70
2023-05-01T01:42:01.194Z,11.70
2023-05-01T01:45:47.477Z,11.70
2023-05-01T01:49:31.437Z,11.60
2023-05-01T01:53:17.396Z,11.60
2023-05-01T01:57:02.809Z,11.60
2023-05-01T02:00:45.615Z,11.60
2023-05-01T02:04:28.595Z,11.60
2023-05-01T02:08:13.113Z,11.60
2023-05-01T02:11:58.654Z,11.70
2023-05-01T02:15:41.580Z,11.80
2023-05-01T02:19:24.862Z,11.80
2023-05-01T02:23:07.880Z,11.80
2023-05-01T02:26:56.625Z,11.80
2023-05-01T02:30:39.177Z,11.80
2023-05-01T02:34:21.415Z,11.80
2023-05-01T02:38:03.299Z,11.80
2023-05-01T02:41:46.380Z,11.80
2023-05-01T02:45:30.845Z,11.80
2023-05-01T02:49:13.484Z,11.80
2023-05-01T02:52:55.768Z,11.80
2023-05-01T02:56:37.981Z,11.80
2023-05-01T03:00:20.795Z,11.80
2023-05-01T03:04:02.644Z,11.80
2023-05-01T03:07:44.621Z,11.80
2023-05-01T03:11:26.937Z,11.80
2023-05-01T03:15:09.355Z,11.90
2023-05-01T03:18:51.184Z,11.90
2023-05-01T03:22:33.269Z,11.90
2023-05-01T03:26:15.047Z,11.80
2023-05-01T03:29:57.522Z,11.80
2023-05-01T03:33:40.154Z,11.70
2023-05-01T03:37:21.865Z,11.70
2023-05-01T03:41:05.248Z,11.60
2023-05-01T03:44:46.954Z,11.60
2023-05-01T03:48:28.753Z,11.50
2023-05-01T03:52:14.631Z,11.60
2023-05-01T03:55:56.519Z,11.60
2023-05-01T03:59:38.982Z,11.60
2023-05-01T04:03:20.840Z,11.60
2023-05-01T04:07:02.965Z,11.60
2023-05-01T04:10:45.253Z,11.60
2023-05-01T04:14:27.120Z,11.60
2023-05-01T04:18:09.214Z,11.60
2023-05-01T04:21:51.034Z,11.50
2023-05-01T04:25:32.846Z,11.60
2023-05-01T04:29:14.597Z,11.50
2023-05-01T04:32:56.578Z,11.60
2023-05-01T04:36:38.338Z,11.60
2023-05-01T04:40:20.172Z,11.60
2023-05-01T04:44:01.930Z,11.60
2023-05-01T04:47:44.166Z,11.60
2023-05-01T04:51:25.961Z,11.60
2023-05-01T04:55:09.375Z,11.70
2023-05-01T04:58:51.449Z,11.70
2023-05-01T05:02:33.300Z,11.70
2023-05-01T05:06:15.227Z,11.80
2023-05-01T05:09:57.397Z,11.80
2023-05-01T05:13:39.383Z,11.80
2023-05-01T05:17:21.102Z,11.90
2023-05-01T05:21:06.871Z,11.90
2023-05-01T05:24:54.712Z,11.90
2023-05-01T05:28:36.476Z,12.00
2023-05-01T05:32:18.316Z,12.00
2023-05-01T05:36:00.404Z,12.00
2023-05-01T05:39:42.144Z,12.00
2023-05-01T05:43:25.992Z,12.00
2023-05-01T05:47:09.123Z,12.00
2023-05-01T05:50:52.511Z,12.00
2023-05-01T05:54:34.283Z,12.10
2023-05-01T05:58:23.224Z,12.10
2023-05-01T06:02:05.114Z,12.20
2023-05-01T06:05:47.186Z,12.30
2023-05-01T06:09:29.020Z,12.30
2023-05-01T06:13:13.450Z,12.30
2023-05-01T06:16:56.432Z,12.40
2023-05-01T06:20:38.829Z,12.40
2023-05-01T06:24:20.530Z,12.40
2023-05-01T06:28:02.565Z,12.50
2023-05-01T06:31:44.542Z,12.60
2023-05-01T06:35:26.318Z,12.60
2023-05-01T06:39:08.070Z,12.70
2023-05-01T06:42:49.822Z,12.70
2023-05-01T06:46:31.613Z,12.70
2023-05-01T06:50:14.369Z,12.70
2023-05-01T06:53:56.222Z,12.80
2023-05-01T06:57:38.168Z,12.80
2023-05-01T07:01:20.037Z,12.90
2023-05-01T07:05:02.405Z,12.90
2023-05-01T07:08:44.222Z,12.90
2023-05-01T07:12:25.932Z,13.00
2023-05-01T07:16:07.948Z,13.10
2023-05-01T07:19:50.222Z,13.10
2023-05-01T07:23:32.038Z,13.20
2023-05-01T07:27:13.884Z,13.30
2023-05-01T07:30:55.742Z,13.30
2023-05-01T07:34:37.619Z,13.40
2023-05-01T07:38:19.741Z,13.40
2023-05-01T07:42:01.683Z,13.50
2023-05-01T07:45:58.348Z,13.70
2023-05-01T07:49:40.156Z,13.90
2023-05-01T07:53:25.042Z,14.00
2023-05-01T07:57:06.911Z,14.00
2023-05-01T08:00:48.651Z,13.90
2023-05-01T08:04:31.160Z,13.90
2023-05-01T08:08:19.217Z,13.90
2023-05-01T08:12:03.804Z,13.80
2023-05-01T08:15:49.340Z,13.90
2023-05-01T08:19:31.390Z,13.90
2023-05-01T08:23:13.257Z,13.90
2023-05-01T08:26:55.332Z,13.90
2023-05-01T08:30:37.124Z,14.00
2023-05-01T08:34:19.191Z,14.10
2023-05-01T08:38:01.712Z,14.30
2023-05-01T08:41:47.324Z,14.40
2023-05-01T08:45:35.939Z,14.40
2023-05-01T08:49:19.801Z,14.50
2023-05-01T08:53:03.501Z,14.60
2023-05-01T08:56:47.389Z,14.60
2023-05-01T09:00:29.990Z,14.70
2023-05-01T09:04:12.458Z,14.80
2023-05-01T09:07:56.271Z,14.90
2023-05-01T09:11:38.183Z,14.90
2023-05-01T09:15:20.182Z,15.10
2023-05-01T09:19:01.994Z,15.20
2023-05-01T09:22:43.788Z,15.40
2023-05-01T09:26:26.836Z,15.50
2023-05-01T09:30:09.517Z,15.60
2023-05-01T09:33:59.349Z,15.70
2023-05-01T09:37:41.827Z,15.80
2023-05-01T09:41:24.094Z,15.90
2023-05-01T09:45:15.245Z,15.90
2023-05-01T09:48:59.996Z,16.00
2023-05-01T09:52:52.426Z,16.10
2023-05-01T09:56:45.854Z,16.20
2023-05-01T10:00:27.965Z,16.30
2023-05-01T10:04:10.127Z,16.60
2023-05-01T10:08:02.305Z,16.60
2023-05-01T10:11:56.159Z,16.60
2023-05-01T10:15:37.941Z,16.60
2023-05-01T10:19:21.362Z,16.40
2023-05-01T10:23:03.600Z,16.40
2023-05-01T10:26:49.070Z,16.40
2023-05-01T10:30:31.446Z,16.70
2023-05-01T10:34:18.575Z,16.80
2023-05-01T10:38:02.766Z,17.00
2023-05-01T10:42:01.938Z,17.10
2023-05-01T10:45:45.097Z,17.20
2023-05-01T10:50:05.246Z,17.30
2023-05-01T10:54:13.059Z,17.40
2023-05-01T10:57:55.337Z,17.20
2023-05-01T11:01:39.845Z,17.10
2023-05-01T11:06:00.120Z,17.10
2023-05-01T11:09:59.173Z,17.10
2023-05-01T11:13:59.941Z,17.30
2023-05-01T11:17:41.920Z,17.50
2023-05-01T11:21:34.172Z,17.50
2023-05-01T11:25:34.128Z,17.40
2023-05-01T11:29:15.968Z,17.40
2023-05-01T11:32:57.877Z,17.40
2023-05-01T11:36:53.037Z,17.40
2023-05-01T11:40:35.411Z,17.40
2023-05-01T11:44:18.496Z,17.40
2023-05-01T11:48:03.465Z,17.40
2023-05-01T11:51:56.828Z,17.40
2023-05-01T11:55:38.834Z,17.40
2023-05-01T11:59:20.621Z,17.60
2023-05-01T12:03:10.315Z,17.70
2023-05-01T12:06:52.249Z,17.90
2023-05-01T12:10:35.756Z,17.90
2023-05-01T12:14:18.712Z,18.00
2023-05-01T12:18:01.259Z,18.10
2023-05-01T12:21:43.430Z,18.20
2023-05-01T12:25:31.965Z,18.30
2023-05-01T12:29:13.794Z,18.50
2023-05-01T12:32:57.364Z,18.50
2023-05-01T12:36:39.494Z,18.60
2023-05-01T12:40:22.897Z,18.70
2023-05-01T12:44:22.441Z,18.70
2023-05-01T12:48:13.729Z,18.60
2023-05-01T12:52:00.587Z,18.60
2023-05-01T12:55:50.445Z,18.40
2023-05-01T12:59:32.301Z,18.30
2023-05-01T13:03:17.342Z,18.20
2023-05-01T13:07:00.179Z,18.10
2023-05-01T13:10:42.294Z,18.20
2023-05-01T13:14:24.501Z,18.30
2023-05-01T13:18:06.402Z,18.90
2023-05-01T13:21:50.447Z,19.80
2023-05-01T13:25:32.765Z,20.50
2023-05-01T13:29:15.710Z,21.10
2023-05-01T13:32:57.538Z,21.80
2023-05-01T13:36:40.717Z,22.10
2023-05-01T13:40:26.108Z,22.40
2023-05-01T13:44:08.367Z,22.40
2023-05-01T13:47:51.912Z,21.90
2023-05-01T13:51:36.634Z,21.40
2023-05-01T13:55:18.889Z,21.30
2023-05-01T13:59:01.032Z,21.20
2023-05-01T14:02:48.548Z,20.90
2023-05-01T14:06:30.956Z,20.50
2023-05-01T14:10:13.108Z,20.10
2023-05-01T14:13:58.806Z,19.90
2023-05-01T14:17:41.134Z,19.60
2023-05-01T14:21:29.990Z,19.60
2023-05-01T14:25:34.970Z,19.70
2023-05-01T14:29:23.959Z,19.80
2023-05-01T14:33:08.213Z,19.80
2023-05-01T14:36:50.638Z,19.80
2023-05-01T14:40:33.954Z,20.30
2023-05-01T14:44:18.742Z,20.80
2023-05-01T14:48:00.653Z,20.80
2023-05-01T14:51:42.601Z,20.60
2023-05-01T14:55:31.228Z,20.50
2023-05-01T14:59:13.515Z,20.50
2023-05-01T15:02:55.600Z,20.50
2023-05-01T15:06:37.480Z,20.40
2023-05-01T15:10:19.307Z,20.20
2023-05-01T15:14:01.105Z,20.00
2023-05-01T15:17:42.893Z,19.80
2023-05-01T15:21:24.684Z,19.70
2023-05-01T15:25:09.208Z,19.60
2023-05-01T15:28:51.256Z,20.40
2023-05-01T15:32:33.010Z,21.50
2023-05-01T15:36:15.106Z,22.60
2023-05-01T15:39:56.894Z,23.60
2023-05-01T15:43:38.897Z,24.40
2023-05-01T15:47:20.667Z,25.00
2023-05-01T15:51:02.450Z,25.80
2023-05-01T15:54:47.129Z,26.10
2023-05-01T15:58:28.868Z,26.00
2023-05-01T16:02:10.656Z,26.00
2023-05-01T16:05:52.578Z,26.10
2023-05-01T16:09:34.847Z,26.50
2023-05-01T16:13:16.898Z,26.80
2023-05-01T16:16:58.878Z,26.20
2023-05-01T16:20:43.054Z,26.20
2023-05-01T16:24:25.245Z,25.90
2023-05-01T16:28:07.663Z,26.10
2023-05-01T16:31:49.445Z,26.40
2023-05-01T16:35:31.801Z,27.00
2023-05-01T16:39:18.950Z,27.10
2023-05-01T16:43:02.466Z,27.30
2023-05-01T16:47:05.228Z,27.40
2023-05-01T16:50:47.193Z,26.60
2023-05-01T16:54:35.597Z,25.80
2023-05-01T16:58:17.486Z,25.30
2023-05-01T17:01:59.309Z,25.40
2023-05-01T17:05:41.177Z,26.00
2023-05-01T17:09:22.965Z,26.60
2023-05-01T17:13:05.975Z,27.10
2023-05-01T17:16:50.055Z,27.50
2023-05-01T17:20:32.262Z,27.60
2023-05-01T17:24:14.221Z,27.60
2023-05-01T17:27:56.068Z,27.60
2023-05-01T17:31:37.785Z,27.50
2023-05-01T17:35:19.584Z,26.80
2023-05-01T17:39:01.504Z,25.90
2023-05-01T17:42:44.419Z,25.60
2023-05-01T17:46:26.676Z,25.90
2023-05-01T17:50:13.130Z,26.10
2023-05-01T17:53:54.863Z,26.40
2023-05-01T17:57:37.189Z,26.40
2023-05-01T18:01:19.433Z,26.30
2023-05-01T18:05:01.801Z,26.20
2023-05-01T18:08:44.151Z,26.30
2023-05-01T18:12:25.870Z,26.00
2023-05-01T18:16:07.819Z,25.70
2023-05-01T18:19:50.013Z,25.20
2023-05-01T18:23:32.016Z,24.40
2023-05-01T18:27:14.449Z,23.90
2023-05-01T18:30:56.233Z,23.10
2023-05-01T18:34:38.014Z,22.50
2023-05-01T18:38:19.757Z,22.80
2023-05-01T18:42:03.490Z,23.20
2023-05-01T18:45:45.235Z,23.40
2023-05-01T18:49:26.947Z,23.30
2023-05-01T18:53:08.856Z,23.00
2023-05-01T18:56:50.759Z,22.30
2023-05-01T19:00:32.977Z,21.40
2023-05-01T19:04:14.828Z,20.70
2023-05-01T19:08:00.825Z,20.10
2023-05-01T19:11:42.612Z,19.80
2023-05-01T19:15:24.380Z,19.40
2023-05-01T19:19:06.429Z,19.00
2023-05-01T19:22:48.278Z,18.70
2023-05-01T19:26:30.661Z,18.40
2023-05-01T19:30:12.477Z,18.10
2023-05-01T19:33:55.139Z,18.10
2023-05-01T19:37:37.346Z,17.90
2023-05-01T19:41:19.186Z,17.80
2023-05-01T19:45:00.980Z,17.60
2023-05-01T19:48:42.771Z,17.40
2023-05-01T19:52:24.622Z,17.30
2023-05-01T19:56:06.818Z,17.30
2023-05-01T19:59:49.115Z,17.30
2023-05-01T20:03:31.057Z,17.20
2023-05-01T20:07:12.858Z,17.10
2023-05-01T20:10:56.913Z,17.00
2023-05-01T20:14:38.690Z,17.00
2023-05-01T20:18:20.779Z,16.90
2023-05-01T20:22:02.567Z,16.90
2023-05-01T20:25:46.374Z,17.00
2023-05-01T20:29:31.375Z,17.00
2023-05-01T20:33:14.019Z,17.00
2023-05-01T20:36:55.976Z,17.00
2023-05-01T20:40:40.762Z,16.90
2023-05-01T20:44:22.440Z,16.80
2023-05-01T20:48:04.506Z,16.70
2023-05-01T20:51:46.491Z,16.60
2023-05-01T20:55:28.476Z,16.60
2023-05-01T20:59:10.207Z,16.60
2023-05-01T21:02:52.867Z,16.70
2023-05-01T21:06:35.049Z,16.70
2023-05-01T21:10:16.894Z,16.80
2023-05-01T21:13:58.693Z,16.90
2023-05-01T21:17:41.258Z,16.80
2023-05-01T21:21:24.869Z,16.80
2023-05-01T21:25:08.811Z,16.70
2023-05-01T21:28:50.605Z,16.70
2023-05-01T21:32:41.725Z,16.50
2023-05-01T21:36:23.704Z,16.40
2023-05-01T21:40:06.488Z,16.30
2023-05-01T21:43:48.330Z,16.20
2023-05-01T21:47:37.036Z,16.10
2023-05-01T21:51:19.137Z,16.00
2023-05-01T21:55:06.458Z,15.90
2023-05-01T21:58:48.593Z,15.80
2023-05-01T22:02:40.408Z,15.70
2023-05-01T22:06:24.407Z,15.70
2023-05-01T22:10:11.790Z,15.60
2023-05-01T22:13:53.648Z,15.60
2023-05-01T22:17:36.446Z,15.60
2023-05-01T22:21:18.250Z,15.40
2023-05-01T22:25:00.023Z,15.40
2023-05-01T22:28:42.115Z,15.30
2023-05-01T22:32:23.936Z,15.20
2023-05-01T22:36:07.590Z,15.20
2023-05-01T22:39:49.553Z,15.10
2023-05-01T22:43:31.319Z,15.00
2023-05-01T22:47:13.028Z,14.90
2023-05-01T22:50:54.709Z,14.80
2023-05-01T22:54:36.468Z,14.80
2023-05-01T22:58:18.627Z,14.70
2023-05-01T23:02:03.324Z,14.60
2023-05-01T23:05:45.514Z,14.50
2023-05-01T23:09:29.842Z,14.40
2023-05-01T23:13:18.824Z,14.40
2023-05-01T23:17:01.208Z,14.30
2023-05-01T23:20:44.103Z,14.30
2023-05-01T23:24:28.132Z,14.20
2023-05-01T23:28:09.882Z,14.20
2023-05-01T23:31:51.775Z,14.10
2023-05-01T23:35:33.636Z,14.10
2023-05-01T23:39:16.340Z,14.00
2023-05-01T23:42:58.690Z,14.00
2023-05-01T23:46:40.780Z,13.90
2023-05-01T23:50:25.137Z,13.80
2023-05-01T23:54:07.301Z,13.80
2023-05-01T23:57:49.091Z,13.70
